sensor_id;sensor_type;location;lat;lon;timestamp;P1;durP1;ratioP1;P2;durP2;ratioP2
46288;SDS011;63105;46.158;14.604;2024-01-30T00:00:19;41.55;;;24.38;;
46288;SDS011;63105;46.158;14.604;2024-01-30T00:02:44;40.53;;;23.58;;
46288;SDS011;63105;46.158;14.604;2024-01-30T00:05:10;42.40;;;23.92;;
46288;SDS011;63105;46.158;14.604;2024-01-30T00:07:36;41.42;;;23.60;;
46288;SDS011;63105;46.158;14.604;2024-01-30T00:10:01;42.55;;;23.90;;
46288;SDS011;63105;46.158;14.604;2024-01-30T00:12:26;37.25;;;22.92;;
46288;SDS011;63105;46.158;14.604;2024-01-30T00:14:51;40.58;;;22.17;;
46288;SDS011;63105;46.158;14.604;2024-01-30T00:17:16;37.80;;;22.08;;
46288;SDS011;63105;46.158;14.604;2024-01-30T00:19:42;40.55;;;23.73;;
46288;SDS011;63105;46.158;14.604;2024-01-30T00:22:07;41.53;;;22.52;;
46288;SDS011;63105;46.158;14.604;2024-01-30T00:24:32;37.72;;;22.63;;
46288;SDS011;63105;46.158;14.604;2024-01-30T00:26:58;40.80;;;23.38;;
46288;SDS011;63105;46.158;14.604;2024-01-30T00:29:23;40.70;;;22.35;;
46288;SDS011;63105;46.158;14.604;2024-01-30T00:31:50;37.78;;;22.35;;
46288;SDS011;63105;46.158;14.604;2024-01-30T00:34:15;38.28;;;21.58;;
46288;SDS011;63105;46.158;14.604;2024-01-30T00:36:41;38.05;;;21.67;;
46288;SDS011;63105;46.158;14.604;2024-01-30T00:39:06;36.60;;;21.45;;
46288;SDS011;63105;46.158;14.604;2024-01-30T00:41:34;37.33;;;21.10;;
46288;SDS011;63105;46.158;14.604;2024-01-30T00:43:59;34.75;;;20.02;;
46288;SDS011;63105;46.158;14.604;2024-01-30T00:46:24;31.48;;;19.23;;
46288;SDS011;63105;46.158;14.604;2024-01-30T00:48:50;35.17;;;20.33;;
46288;SDS011;63105;46.158;14.604;2024-01-30T00:51:15;33.63;;;19.30;;
46288;SDS011;63105;46.158;14.604;2024-01-30T00:53:40;31.38;;;19.17;;
46288;SDS011;63105;46.158;14.604;2024-01-30T00:56:06;36.47;;;19.65;;
46288;SDS011;63105;46.158;14.604;2024-01-30T00:58:32;31.08;;;18.17;;
46288;SDS011;63105;46.158;14.604;2024-01-30T01:00:57;32.25;;;18.17;;
46288;SDS011;63105;46.158;14.604;2024-01-30T01:03:22;27.05;;;16.45;;
46288;SDS011;63105;46.158;14.604;2024-01-30T01:05:47;30.00;;;16.35;;
46288;SDS011;63105;46.158;14.604;2024-01-30T01:08:13;27.73;;;16.65;;
46288;SDS011;63105;46.158;14.604;2024-01-30T01:10:40;29.92;;;17.23;;
46288;SDS011;63105;46.158;14.604;2024-01-30T01:13:05;27.13;;;15.52;;
46288;SDS011;63105;46.158;14.604;2024-01-30T01:15:30;25.02;;;16.00;;
46288;SDS011;63105;46.158;14.604;2024-01-30T01:17:55;32.17;;;15.60;;
46288;SDS011;63105;46.158;14.604;2024-01-30T01:20:20;27.40;;;15.48;;
46288;SDS011;63105;46.158;14.604;2024-01-30T01:22:46;27.27;;;16.90;;
46288;SDS011;63105;46.158;14.604;2024-01-30T01:25:11;29.25;;;16.63;;
46288;SDS011;63105;46.158;14.604;2024-01-30T01:27:36;28.77;;;16.83;;
46288;SDS011;63105;46.158;14.604;2024-01-30T01:30:06;30.38;;;16.85;;
46288;SDS011;63105;46.158;14.604;2024-01-30T01:32:34;28.98;;;16.63;;
46288;SDS011;63105;46.158;14.604;2024-01-30T01:34:59;29.63;;;17.13;;
46288;SDS011;63105;46.158;14.604;2024-01-30T01:37:24;27.70;;;15.80;;
46288;SDS011;63105;46.158;14.604;2024-01-30T01:39:51;27.23;;;15.45;;
46288;SDS011;63105;46.158;14.604;2024-01-30T01:42:16;27.85;;;16.50;;
46288;SDS011;63105;46.158;14.604;2024-01-30T01:44:42;28.50;;;16.92;;
46288;SDS011;63105;46.158;14.604;2024-01-30T01:47:07;29.90;;;16.67;;
46288;SDS011;63105;46.158;14.604;2024-01-30T01:49:32;29.98;;;17.05;;
46288;SDS011;63105;46.158;14.604;2024-01-30T01:51:57;30.17;;;16.73;;
46288;SDS011;63105;46.158;14.604;2024-01-30T01:54:23;30.17;;;17.92;;
46288;SDS011;63105;46.158;14.604;2024-01-30T01:56:49;31.77;;;17.77;;
46288;SDS011;63105;46.158;14.604;2024-01-30T01:59:16;27.40;;;16.13;;
46288;SDS011;63105;46.158;14.604;2024-01-30T02:01:41;31.48;;;17.85;;
46288;SDS011;63105;46.158;14.604;2024-01-30T02:04:07;30.13;;;17.40;;
46288;SDS011;63105;46.158;14.604;2024-01-30T02:06:32;29.33;;;17.45;;
46288;SDS011;63105;46.158;14.604;2024-01-30T02:08:58;29.52;;;16.73;;
46288;SDS011;63105;46.158;14.604;2024-01-30T02:11:23;30.52;;;17.70;;
46288;SDS011;63105;46.158;14.604;2024-01-30T02:13:49;29.42;;;17.58;;
46288;SDS011;63105;46.158;14.604;2024-01-30T02:16:15;33.55;;;17.70;;
46288;SDS011;63105;46.158;14.604;2024-01-30T02:18:40;31.48;;;17.50;;
46288;SDS011;63105;46.158;14.604;2024-01-30T02:21:12;28.45;;;16.45;;
46288;SDS011;63105;46.158;14.604;2024-01-30T02:23:37;31.17;;;17.23;;
46288;SDS011;63105;46.158;14.604;2024-01-30T02:26:02;30.17;;;17.52;;
46288;SDS011;63105;46.158;14.604;2024-01-30T02:28:28;32.00;;;17.65;;
46288;SDS011;63105;46.158;14.604;2024-01-30T02:30:53;30.45;;;17.42;;
46288;SDS011;63105;46.158;14.604;2024-01-30T02:33:18;31.52;;;17.83;;
46288;SDS011;63105;46.158;14.604;2024-01-30T02:35:44;33.30;;;18.90;;
46288;SDS011;63105;46.158;14.604;2024-01-30T02:38:09;35.13;;;17.92;;
46288;SDS011;63105;46.158;14.604;2024-01-30T02:40:34;32.60;;;17.60;;
46288;SDS011;63105;46.158;14.604;2024-01-30T02:43:02;31.42;;;17.70;;
46288;SDS011;63105;46.158;14.604;2024-01-30T02:45:27;33.60;;;17.80;;
46288;SDS011;63105;46.158;14.604;2024-01-30T02:47:52;30.00;;;17.38;;
46288;SDS011;63105;46.158;14.604;2024-01-30T02:50:18;31.40;;;17.27;;
46288;SDS011;63105;46.158;14.604;2024-01-30T02:52:43;32.15;;;16.92;;
46288;SDS011;63105;46.158;14.604;2024-01-30T02:55:11;32.05;;;16.45;;
46288;SDS011;63105;46.158;14.604;2024-01-30T02:57:37;30.05;;;17.80;;
46288;SDS011;63105;46.158;14.604;2024-01-30T03:00:02;30.38;;;17.00;;
46288;SDS011;63105;46.158;14.604;2024-01-30T03:02:29;33.63;;;17.63;;
46288;SDS011;63105;46.158;14.604;2024-01-30T03:04:54;30.83;;;17.85;;
46288;SDS011;63105;46.158;14.604;2024-01-30T03:07:19;31.05;;;16.98;;
46288;SDS011;63105;46.158;14.604;2024-01-30T03:09:44;29.48;;;17.42;;
46288;SDS011;63105;46.158;14.604;2024-01-30T03:12:09;29.58;;;16.70;;
46288;SDS011;63105;46.158;14.604;2024-01-30T03:14:35;28.85;;;16.42;;
46288;SDS011;63105;46.158;14.604;2024-01-30T03:17:00;29.63;;;16.08;;
46288;SDS011;63105;46.158;14.604;2024-01-30T03:19:25;28.23;;;16.02;;
46288;SDS011;63105;46.158;14.604;2024-01-30T03:21:50;27.73;;;16.50;;
46288;SDS011;63105;46.158;14.604;2024-01-30T03:24:16;28.73;;;16.27;;
46288;SDS011;63105;46.158;14.604;2024-01-30T03:26:42;26.17;;;15.95;;
46288;SDS011;63105;46.158;14.604;2024-01-30T03:29:07;25.83;;;15.10;;
46288;SDS011;63105;46.158;14.604;2024-01-30T03:31:32;25.58;;;15.48;;
46288;SDS011;63105;46.158;14.604;2024-01-30T03:33:58;24.95;;;15.50;;
46288;SDS011;63105;46.158;14.604;2024-01-30T03:36:23;28.08;;;16.30;;
46288;SDS011;63105;46.158;14.604;2024-01-30T03:38:48;27.45;;;15.20;;
46288;SDS011;63105;46.158;14.604;2024-01-30T03:41:13;26.98;;;15.60;;
46288;SDS011;63105;46.158;14.604;2024-01-30T03:43:39;27.17;;;16.33;;
46288;SDS011;63105;46.158;14.604;2024-01-30T03:46:04;25.25;;;15.88;;
46288;SDS011;63105;46.158;14.604;2024-01-30T03:48:29;30.15;;;15.93;;
46288;SDS011;63105;46.158;14.604;2024-01-30T03:50:54;28.05;;;16.30;;
46288;SDS011;63105;46.158;14.604;2024-01-30T03:53:20;26.75;;;15.82;;
46288;SDS011;63105;46.158;14.604;2024-01-30T03:55:45;26.60;;;15.85;;
46288;SDS011;63105;46.158;14.604;2024-01-30T03:58:10;26.65;;;15.80;;
46288;SDS011;63105;46.158;14.604;2024-01-30T04:00:36;26.15;;;16.23;;
46288;SDS011;63105;46.158;14.604;2024-01-30T04:03:01;23.92;;;14.65;;
46288;SDS011;63105;46.158;14.604;2024-01-30T04:05:26;27.17;;;15.95;;
46288;SDS011;63105;46.158;14.604;2024-01-30T04:07:51;24.33;;;14.60;;
46288;SDS011;63105;46.158;14.604;2024-01-30T04:10:17;25.80;;;14.60;;
46288;SDS011;63105;46.158;14.604;2024-01-30T04:12:42;27.15;;;15.32;;
46288;SDS011;63105;46.158;14.604;2024-01-30T04:15:08;26.00;;;14.32;;
46288;SDS011;63105;46.158;14.604;2024-01-30T04:17:33;25.13;;;14.75;;
46288;SDS011;63105;46.158;14.604;2024-01-30T04:19:58;24.17;;;14.77;;
46288;SDS011;63105;46.158;14.604;2024-01-30T04:22:24;24.55;;;14.25;;
46288;SDS011;63105;46.158;14.604;2024-01-30T04:24:49;22.98;;;14.15;;
46288;SDS011;63105;46.158;14.604;2024-01-30T04:27:14;24.35;;;14.65;;
46288;SDS011;63105;46.158;14.604;2024-01-30T04:29:39;24.83;;;14.85;;
46288;SDS011;63105;46.158;14.604;2024-01-30T04:32:05;23.23;;;13.50;;
46288;SDS011;63105;46.158;14.604;2024-01-30T04:34:30;23.65;;;13.90;;
46288;SDS011;63105;46.158;14.604;2024-01-30T04:36:55;25.63;;;14.95;;
46288;SDS011;63105;46.158;14.604;2024-01-30T04:39:21;22.92;;;13.88;;
46288;SDS011;63105;46.158;14.604;2024-01-30T04:41:46;21.58;;;14.02;;
46288;SDS011;63105;46.158;14.604;2024-01-30T04:44:11;24.20;;;14.40;;
46288;SDS011;63105;46.158;14.604;2024-01-30T04:46:36;23.48;;;13.60;;
46288;SDS011;63105;46.158;14.604;2024-01-30T04:49:02;24.77;;;14.27;;
46288;SDS011;63105;46.158;14.604;2024-01-30T04:51:28;21.98;;;13.80;;
46288;SDS011;63105;46.158;14.604;2024-01-30T04:53:53;24.00;;;14.35;;
46288;SDS011;63105;46.158;14.604;2024-01-30T04:56:19;24.45;;;13.93;;
46288;SDS011;63105;46.158;14.604;2024-01-30T04:58:44;26.30;;;14.38;;
46288;SDS011;63105;46.158;14.604;2024-01-30T05:01:09;23.52;;;13.98;;
46288;SDS011;63105;46.158;14.604;2024-01-30T05:03:35;25.25;;;14.25;;
46288;SDS011;63105;46.158;14.604;2024-01-30T05:06:00;26.70;;;14.27;;
46288;SDS011;63105;46.158;14.604;2024-01-30T05:08:25;23.35;;;14.63;;
46288;SDS011;63105;46.158;14.604;2024-01-30T05:10:50;25.95;;;14.13;;
46288;SDS011;63105;46.158;14.604;2024-01-30T05:13:16;23.00;;;14.38;;
46288;SDS011;63105;46.158;14.604;2024-01-30T05:15:41;21.77;;;13.98;;
46288;SDS011;63105;46.158;14.604;2024-01-30T05:18:06;23.73;;;14.60;;
46288;SDS011;63105;46.158;14.604;2024-01-30T05:20:31;24.65;;;14.57;;
46288;SDS011;63105;46.158;14.604;2024-01-30T05:22:57;23.67;;;14.90;;
46288;SDS011;63105;46.158;14.604;2024-01-30T05:25:22;24.45;;;14.60;;
46288;SDS011;63105;46.158;14.604;2024-01-30T05:27:48;26.42;;;14.80;;
46288;SDS011;63105;46.158;14.604;2024-01-30T05:30:13;26.92;;;14.73;;
46288;SDS011;63105;46.158;14.604;2024-01-30T05:32:39;26.38;;;14.80;;
46288;SDS011;63105;46.158;14.604;2024-01-30T05:35:04;27.50;;;15.50;;
46288;SDS011;63105;46.158;14.604;2024-01-30T05:37:29;24.92;;;14.35;;
46288;SDS011;63105;46.158;14.604;2024-01-30T05:39:55;25.63;;;14.73;;
46288;SDS011;63105;46.158;14.604;2024-01-30T05:42:20;26.33;;;15.02;;
46288;SDS011;63105;46.158;14.604;2024-01-30T05:44:45;23.60;;;14.60;;
46288;SDS011;63105;46.158;14.604;2024-01-30T05:47:10;27.13;;;15.02;;
46288;SDS011;63105;46.158;14.604;2024-01-30T05:49:35;26.52;;;15.10;;
46288;SDS011;63105;46.158;14.604;2024-01-30T05:52:02;24.88;;;14.45;;
46288;SDS011;63105;46.158;14.604;2024-01-30T05:54:28;23.40;;;13.13;;
46288;SDS011;63105;46.158;14.604;2024-01-30T05:56:53;28.75;;;15.50;;
46288;SDS011;63105;46.158;14.604;2024-01-30T05:59:18;23.83;;;14.65;;
46288;SDS011;63105;46.158;14.604;2024-01-30T06:01:47;22.27;;;14.35;;
46288;SDS011;63105;46.158;14.604;2024-01-30T06:04:12;23.70;;;14.88;;
46288;SDS011;63105;46.158;14.604;2024-01-30T06:06:37;27.27;;;14.45;;
46288;SDS011;63105;46.158;14.604;2024-01-30T06:09:03;23.15;;;13.65;;
46288;SDS011;63105;46.158;14.604;2024-01-30T06:11:28;24.40;;;14.57;;
46288;SDS011;63105;46.158;14.604;2024-01-30T06:13:53;25.40;;;14.27;;
46288;SDS011;63105;46.158;14.604;2024-01-30T06:16:18;26.38;;;15.13;;
46288;SDS011;63105;46.158;14.604;2024-01-30T06:18:46;26.45;;;15.13;;
46288;SDS011;63105;46.158;14.604;2024-01-30T06:24:14;24.92;;;15.07;;
46288;SDS011;63105;46.158;14.604;2024-01-30T06:26:39;26.75;;;15.35;;
46288;SDS011;63105;46.158;14.604;2024-01-30T06:29:04;24.75;;;14.75;;
46288;SDS011;63105;46.158;14.604;2024-01-30T06:31:30;26.95;;;15.52;;
46288;SDS011;63105;46.158;14.604;2024-01-30T06:33:56;30.13;;;16.50;;
46288;SDS011;63105;46.158;14.604;2024-01-30T06:36:21;26.95;;;16.27;;
46288;SDS011;63105;46.158;14.604;2024-01-30T06:38:46;25.88;;;15.77;;
46288;SDS011;63105;46.158;14.604;2024-01-30T06:41:11;29.63;;;15.93;;
46288;SDS011;63105;46.158;14.604;2024-01-30T06:43:37;28.75;;;16.35;;
46288;SDS011;63105;46.158;14.604;2024-01-30T06:46:02;29.80;;;17.20;;
46288;SDS011;63105;46.158;14.604;2024-01-30T06:48:27;30.73;;;17.92;;
46288;SDS011;63105;46.158;14.604;2024-01-30T06:50:53;35.15;;;19.65;;
46288;SDS011;63105;46.158;14.604;2024-01-30T06:53:18;34.20;;;20.75;;
46288;SDS011;63105;46.158;14.604;2024-01-30T06:55:44;38.38;;;20.40;;
46288;SDS011;63105;46.158;14.604;2024-01-30T06:58:09;34.40;;;19.42;;
46288;SDS011;63105;46.158;14.604;2024-01-30T07:00:34;33.47;;;20.77;;
46288;SDS011;63105;46.158;14.604;2024-01-30T07:02:59;34.97;;;21.02;;
46288;SDS011;63105;46.158;14.604;2024-01-30T07:05:25;37.58;;;22.30;;
46288;SDS011;63105;46.158;14.604;2024-01-30T07:07:50;35.30;;;20.33;;
46288;SDS011;63105;46.158;14.604;2024-01-30T07:10:15;42.35;;;22.80;;
46288;SDS011;63105;46.158;14.604;2024-01-30T07:12:41;43.35;;;23.35;;
46288;SDS011;63105;46.158;14.604;2024-01-30T07:15:06;40.25;;;22.73;;
46288;SDS011;63105;46.158;14.604;2024-01-30T07:17:35;38.25;;;23.00;;
46288;SDS011;63105;46.158;14.604;2024-01-30T07:20:00;38.75;;;23.88;;
46288;SDS011;63105;46.158;14.604;2024-01-30T07:22:26;39.67;;;23.80;;
46288;SDS011;63105;46.158;14.604;2024-01-30T07:24:51;42.67;;;25.85;;
46288;SDS011;63105;46.158;14.604;2024-01-30T07:27:17;43.90;;;26.17;;
46288;SDS011;63105;46.158;14.604;2024-01-30T07:29:42;45.58;;;26.95;;
46288;SDS011;63105;46.158;14.604;2024-01-30T07:32:08;44.38;;;26.88;;
46288;SDS011;63105;46.158;14.604;2024-01-30T07:34:33;43.47;;;27.88;;
46288;SDS011;63105;46.158;14.604;2024-01-30T07:36:58;43.88;;;27.85;;
46288;SDS011;63105;46.158;14.604;2024-01-30T07:39:23;48.17;;;29.02;;
46288;SDS011;63105;46.158;14.604;2024-01-30T07:41:48;46.40;;;26.35;;
46288;SDS011;63105;46.158;14.604;2024-01-30T07:44:14;46.55;;;27.30;;
46288;SDS011;63105;46.158;14.604;2024-01-30T07:46:39;44.45;;;26.90;;
46288;SDS011;63105;46.158;14.604;2024-01-30T07:49:04;47.00;;;29.50;;
46288;SDS011;63105;46.158;14.604;2024-01-30T07:51:29;48.25;;;29.65;;
46288;SDS011;63105;46.158;14.604;2024-01-30T07:53:59;46.97;;;29.70;;
46288;SDS011;63105;46.158;14.604;2024-01-30T07:56:25;53.38;;;33.42;;
46288;SDS011;63105;46.158;14.604;2024-01-30T07:58:50;47.78;;;31.13;;
46288;SDS011;63105;46.158;14.604;2024-01-30T08:01:15;50.83;;;31.77;;
46288;SDS011;63105;46.158;14.604;2024-01-30T08:03:41;51.55;;;31.15;;
46288;SDS011;63105;46.158;14.604;2024-01-30T08:06:06;51.95;;;32.33;;
46288;SDS011;63105;46.158;14.604;2024-01-30T08:08:32;48.20;;;31.35;;
46288;SDS011;63105;46.158;14.604;2024-01-30T08:10:57;50.15;;;31.75;;
46288;SDS011;63105;46.158;14.604;2024-01-30T08:13:22;52.28;;;32.97;;
46288;SDS011;63105;46.158;14.604;2024-01-30T08:15:47;49.70;;;31.98;;
46288;SDS011;63105;46.158;14.604;2024-01-30T08:18:13;47.95;;;31.20;;
46288;SDS011;63105;46.158;14.604;2024-01-30T08:20:38;48.42;;;31.70;;
46288;SDS011;63105;46.158;14.604;2024-01-30T08:23:03;49.40;;;30.67;;
46288;SDS011;63105;46.158;14.604;2024-01-30T08:25:28;45.85;;;29.50;;
46288;SDS011;63105;46.158;14.604;2024-01-30T08:27:54;50.60;;;30.30;;
46288;SDS011;63105;46.158;14.604;2024-01-30T08:30:20;52.17;;;30.70;;
46288;SDS011;63105;46.158;14.604;2024-01-30T08:32:45;51.22;;;30.17;;
46288;SDS011;63105;46.158;14.604;2024-01-30T08:35:11;50.15;;;29.95;;
46288;SDS011;63105;46.158;14.604;2024-01-30T08:37:38;47.00;;;29.88;;
46288;SDS011;63105;46.158;14.604;2024-01-30T08:40:04;44.88;;;29.25;;
46288;SDS011;63105;46.158;14.604;2024-01-30T08:42:29;45.42;;;29.58;;
46288;SDS011;63105;46.158;14.604;2024-01-30T08:44:54;48.15;;;29.58;;
46288;SDS011;63105;46.158;14.604;2024-01-30T08:47:21;49.58;;;31.08;;
46288;SDS011;63105;46.158;14.604;2024-01-30T08:49:46;52.15;;;30.83;;
46288;SDS011;63105;46.158;14.604;2024-01-30T08:52:11;45.50;;;30.05;;
46288;SDS011;63105;46.158;14.604;2024-01-30T08:54:37;43.90;;;29.30;;
46288;SDS011;63105;46.158;14.604;2024-01-30T08:57:02;45.92;;;28.83;;
46288;SDS011;63105;46.158;14.604;2024-01-30T08:59:27;43.38;;;27.83;;
46288;SDS011;63105;46.158;14.604;2024-01-30T09:01:52;45.85;;;29.83;;
46288;SDS011;63105;46.158;14.604;2024-01-30T09:04:20;45.13;;;30.02;;
46288;SDS011;63105;46.158;14.604;2024-01-30T09:06:45;48.30;;;30.48;;
46288;SDS011;63105;46.158;14.604;2024-01-30T09:09:10;45.33;;;29.85;;
46288;SDS011;63105;46.158;14.604;2024-01-30T09:11:35;46.78;;;30.88;;
46288;SDS011;63105;46.158;14.604;2024-01-30T09:14:01;47.33;;;29.92;;
46288;SDS011;63105;46.158;14.604;2024-01-30T09:16:26;47.30;;;30.45;;
46288;SDS011;63105;46.158;14.604;2024-01-30T09:18:51;45.47;;;29.45;;
46288;SDS011;63105;46.158;14.604;2024-01-30T09:21:17;43.97;;;28.75;;
46288;SDS011;63105;46.158;14.604;2024-01-30T09:23:42;45.58;;;28.58;;
46288;SDS011;63105;46.158;14.604;2024-01-30T09:26:07;43.38;;;28.75;;
46288;SDS011;63105;46.158;14.604;2024-01-30T09:28:32;47.83;;;31.05;;
46288;SDS011;63105;46.158;14.604;2024-01-30T09:30:58;43.63;;;30.20;;
46288;SDS011;63105;46.158;14.604;2024-01-30T09:33:23;47.33;;;29.42;;
46288;SDS011;63105;46.158;14.604;2024-01-30T09:35:48;45.38;;;29.98;;
46288;SDS011;63105;46.158;14.604;2024-01-30T09:38:13;43.67;;;28.48;;
46288;SDS011;63105;46.158;14.604;2024-01-30T09:40:38;41.00;;;27.58;;
46288;SDS011;63105;46.158;14.604;2024-01-30T09:43:04;41.47;;;28.10;;
46288;SDS011;63105;46.158;14.604;2024-01-30T09:45:29;46.53;;;29.52;;
46288;SDS011;63105;46.158;14.604;2024-01-30T09:47:54;44.42;;;29.15;;
46288;SDS011;63105;46.158;14.604;2024-01-30T09:50:20;43.58;;;28.65;;
46288;SDS011;63105;46.158;14.604;2024-01-30T09:52:45;45.83;;;29.25;;
46288;SDS011;63105;46.158;14.604;2024-01-30T09:55:11;42.85;;;29.17;;
46288;SDS011;63105;46.158;14.604;2024-01-30T09:57:37;43.40;;;29.55;;
46288;SDS011;63105;46.158;14.604;2024-01-30T10:00:05;44.75;;;29.35;;
46288;SDS011;63105;46.158;14.604;2024-01-30T10:02:33;43.92;;;29.15;;
46288;SDS011;63105;46.158;14.604;2024-01-30T10:04:59;42.28;;;28.48;;
46288;SDS011;63105;46.158;14.604;2024-01-30T10:07:25;42.17;;;28.88;;
46288;SDS011;63105;46.158;14.604;2024-01-30T10:09:50;45.33;;;29.95;;
46288;SDS011;63105;46.158;14.604;2024-01-30T10:12:15;44.50;;;29.02;;
46288;SDS011;63105;46.158;14.604;2024-01-30T10:14:41;42.88;;;29.20;;
46288;SDS011;63105;46.158;14.604;2024-01-30T10:17:09;43.60;;;29.48;;
46288;SDS011;63105;46.158;14.604;2024-01-30T10:19:35;44.45;;;29.10;;
46288;SDS011;63105;46.158;14.604;2024-01-30T10:22:01;45.40;;;30.20;;
46288;SDS011;63105;46.158;14.604;2024-01-30T10:24:26;37.92;;;28.15;;
46288;SDS011;63105;46.158;14.604;2024-01-30T10:26:52;42.35;;;28.58;;
46288;SDS011;63105;46.158;14.604;2024-01-30T10:29:18;41.50;;;29.38;;
46288;SDS011;63105;46.158;14.604;2024-01-30T10:31:43;40.80;;;28.83;;
46288;SDS011;63105;46.158;14.604;2024-01-30T10:34:08;39.35;;;28.30;;
46288;SDS011;63105;46.158;14.604;2024-01-30T10:36:35;36.75;;;28.17;;
46288;SDS011;63105;46.158;14.604;2024-01-30T10:39:03;38.83;;;28.17;;
46288;SDS011;63105;46.158;14.604;2024-01-30T10:41:31;40.67;;;29.95;;
46288;SDS011;63105;46.158;14.604;2024-01-30T10:44:08;45.88;;;31.02;;
46288;SDS011;63105;46.158;14.604;2024-01-30T10:46:33;38.80;;;28.55;;
46288;SDS011;63105;46.158;14.604;2024-01-30T10:49:00;39.03;;;28.17;;
46288;SDS011;63105;46.158;14.604;2024-01-30T10:51:28;37.03;;;26.95;;
46288;SDS011;63105;46.158;14.604;2024-01-30T10:53:53;40.95;;;27.70;;
46288;SDS011;63105;46.158;14.604;2024-01-30T10:56:23;37.83;;;26.73;;
46288;SDS011;63105;46.158;14.604;2024-01-30T10:58:51;38.25;;;26.65;;
46288;SDS011;63105;46.158;14.604;2024-01-30T11:01:18;39.08;;;27.02;;
46288;SDS011;63105;46.158;14.604;2024-01-30T11:03:44;38.70;;;26.60;;
46288;SDS011;63105;46.158;14.604;2024-01-30T11:06:13;39.22;;;26.27;;
46288;SDS011;63105;46.158;14.604;2024-01-30T11:08:43;35.08;;;26.00;;
46288;SDS011;63105;46.158;14.604;2024-01-30T11:11:08;32.25;;;24.38;;
46288;SDS011;63105;46.158;14.604;2024-01-30T11:13:34;35.28;;;24.67;;
46288;SDS011;63105;46.158;14.604;2024-01-30T11:16:02;31.88;;;23.33;;
46288;SDS011;63105;46.158;14.604;2024-01-30T11:18:32;32.35;;;23.73;;
46288;SDS011;63105;46.158;14.604;2024-01-30T11:20:57;33.70;;;24.10;;
46288;SDS011;63105;46.158;14.604;2024-01-30T11:23:23;31.67;;;22.55;;
46288;SDS011;63105;46.158;14.604;2024-01-30T11:25:49;29.50;;;21.52;;
46288;SDS011;63105;46.158;14.604;2024-01-30T11:28:14;30.65;;;21.52;;
46288;SDS011;63105;46.158;14.604;2024-01-30T11:30:43;30.65;;;22.85;;
46288;SDS011;63105;46.158;14.604;2024-01-30T11:33:09;35.17;;;24.05;;
46288;SDS011;63105;46.158;14.604;2024-01-30T11:35:37;38.22;;;25.70;;
46288;SDS011;63105;46.158;14.604;2024-01-30T11:38:04;34.55;;;22.67;;
46288;SDS011;63105;46.158;14.604;2024-01-30T11:40:30;31.10;;;22.15;;
46288;SDS011;63105;46.158;14.604;2024-01-30T11:42:55;30.77;;;21.80;;
46288;SDS011;63105;46.158;14.604;2024-01-30T11:45:21;31.50;;;22.17;;
46288;SDS011;63105;46.158;14.604;2024-01-30T11:47:46;30.92;;;22.08;;
46288;SDS011;63105;46.158;14.604;2024-01-30T11:50:12;31.80;;;22.52;;
46288;SDS011;63105;46.158;14.604;2024-01-30T11:52:37;30.48;;;21.27;;
46288;SDS011;63105;46.158;14.604;2024-01-30T11:55:03;30.42;;;20.88;;
46288;SDS011;63105;46.158;14.604;2024-01-30T11:57:28;28.40;;;20.55;;
46288;SDS011;63105;46.158;14.604;2024-01-30T11:59:54;29.40;;;19.88;;
46288;SDS011;63105;46.158;14.604;2024-01-30T12:02:19;27.25;;;19.45;;
46288;SDS011;63105;46.158;14.604;2024-01-30T12:04:44;30.42;;;19.58;;
46288;SDS011;63105;46.158;14.604;2024-01-30T12:07:10;31.55;;;21.08;;
46288;SDS011;63105;46.158;14.604;2024-01-30T12:09:35;23.58;;;17.58;;
46288;SDS011;63105;46.158;14.604;2024-01-30T12:12:00;26.00;;;18.60;;
46288;SDS011;63105;46.158;14.604;2024-01-30T12:14:26;27.80;;;19.55;;
46288;SDS011;63105;46.158;14.604;2024-01-30T12:16:51;27.73;;;19.98;;
46288;SDS011;63105;46.158;14.604;2024-01-30T12:19:23;28.40;;;17.95;;
46288;SDS011;63105;46.158;14.604;2024-01-30T12:21:53;34.67;;;23.50;;
46288;SDS011;63105;46.158;14.604;2024-01-30T12:24:18;35.70;;;23.15;;
46288;SDS011;63105;46.158;14.604;2024-01-30T12:26:43;34.42;;;22.85;;
46288;SDS011;63105;46.158;14.604;2024-01-30T12:29:09;29.48;;;20.10;;
46288;SDS011;63105;46.158;14.604;2024-01-30T12:31:34;27.95;;;19.70;;
46288;SDS011;63105;46.158;14.604;2024-01-30T12:33:59;28.58;;;20.40;;
46288;SDS011;63105;46.158;14.604;2024-01-30T12:36:25;28.27;;;19.73;;
46288;SDS011;63105;46.158;14.604;2024-01-30T12:38:50;29.40;;;20.55;;
46288;SDS011;63105;46.158;14.604;2024-01-30T12:41:15;31.52;;;19.80;;
46288;SDS011;63105;46.158;14.604;2024-01-30T12:43:41;26.60;;;17.90;;
46288;SDS011;63105;46.158;14.604;2024-01-30T12:46:07;29.58;;;18.90;;
46288;SDS011;63105;46.158;14.604;2024-01-30T12:48:33;24.38;;;17.48;;
46288;SDS011;63105;46.158;14.604;2024-01-30T12:50:58;26.83;;;18.15;;
46288;SDS011;63105;46.158;14.604;2024-01-30T12:53:24;26.55;;;18.30;;
46288;SDS011;63105;46.158;14.604;2024-01-30T12:55:49;26.60;;;19.65;;
46288;SDS011;63105;46.158;14.604;2024-01-30T12:58:15;27.38;;;18.48;;
46288;SDS011;63105;46.158;14.604;2024-01-30T13:00:40;26.85;;;19.02;;
46288;SDS011;63105;46.158;14.604;2024-01-30T13:03:07;27.73;;;18.65;;
46288;SDS011;63105;46.158;14.604;2024-01-30T13:05:33;26.23;;;18.95;;
46288;SDS011;63105;46.158;14.604;2024-01-30T13:07:58;25.50;;;17.52;;
46288;SDS011;63105;46.158;14.604;2024-01-30T13:10:24;28.45;;;18.40;;
46288;SDS011;63105;46.158;14.604;2024-01-30T13:12:49;26.45;;;17.98;;
46288;SDS011;63105;46.158;14.604;2024-01-30T13:15:14;24.85;;;17.35;;
46288;SDS011;63105;46.158;14.604;2024-01-30T13:17:40;25.38;;;17.67;;
46288;SDS011;63105;46.158;14.604;2024-01-30T13:20:05;26.85;;;17.33;;
46288;SDS011;63105;46.158;14.604;2024-01-30T13:22:33;24.85;;;17.60;;
46288;SDS011;63105;46.158;14.604;2024-01-30T13:24:58;31.05;;;20.15;;
46288;SDS011;63105;46.158;14.604;2024-01-30T13:27:23;26.95;;;18.67;;
46288;SDS011;63105;46.158;14.604;2024-01-30T13:29:48;25.25;;;18.13;;
46288;SDS011;63105;46.158;14.604;2024-01-30T13:32:14;26.33;;;18.08;;
46288;SDS011;63105;46.158;14.604;2024-01-30T13:34:39;28.70;;;18.25;;
46288;SDS011;63105;46.158;14.604;2024-01-30T13:37:05;26.90;;;17.95;;
46288;SDS011;63105;46.158;14.604;2024-01-30T13:39:30;26.23;;;18.52;;
46288;SDS011;63105;46.158;14.604;2024-01-30T13:41:55;28.23;;;18.95;;
46288;SDS011;63105;46.158;14.604;2024-01-30T13:44:20;25.30;;;18.02;;
46288;SDS011;63105;46.158;14.604;2024-01-30T13:46:46;25.08;;;18.27;;
46288;SDS011;63105;46.158;14.604;2024-01-30T13:49:11;25.83;;;17.50;;
46288;SDS011;63105;46.158;14.604;2024-01-30T13:51:36;25.45;;;17.98;;
46288;SDS011;63105;46.158;14.604;2024-01-30T13:54:02;25.98;;;17.25;;
46288;SDS011;63105;46.158;14.604;2024-01-30T13:56:27;25.20;;;18.15;;
46288;SDS011;63105;46.158;14.604;2024-01-30T13:58:52;24.55;;;17.20;;
46288;SDS011;63105;46.158;14.604;2024-01-30T14:01:18;25.80;;;17.77;;